METAR Data
IDs: Format: Raw Decoded Include TAF

Data at: 1337 UTC 21 Apr 2021

METAR for:KAXA (Algona Muni, IA, US)
Text:KAXA 211315Z AUTO 33013G18KT 10SM BKN055 M01/M09 A3019 RMK A01
Temperature: -1.0°C ( 30°F)
Dewpoint: -9.0°C ( 16°F) [RH = 55%]
Pressure (altimeter):30.19 inches Hg (1022.4 mb)
Winds:from the NNW (330 degrees) at 15 MPH (13 knots; 6.7 m/s) gusting to 21 MPH (18 knots; 9.3 m/s)
Visibility:10 or more sm (16+ km)
Ceiling:5500 feet AGL
Clouds: broken clouds at 5500 feet AGL
QC Flag:automated observation with no human augmentation